sensor_id;sensor_type;location;lat;lon;timestamp;P1;durP1;ratioP1;P2;durP2;ratioP2
81378;SDS011;70830;42.290;-71.354;2023-07-13T00:02:16;10.35;;;8.43;;
81378;SDS011;70830;42.290;-71.354;2023-07-13T00:04:42;10.30;;;8.02;;
81378;SDS011;70830;42.290;-71.354;2023-07-13T00:07:09;11.27;;;7.50;;
81378;SDS011;70830;42.290;-71.354;2023-07-13T00:09:35;11.82;;;8.70;;
81378;SDS011;70830;42.290;-71.354;2023-07-13T00:12:01;10.18;;;8.40;;
81378;SDS011;70830;42.290;-71.354;2023-07-13T00:14:28;10.00;;;8.23;;
81378;SDS011;70830;42.290;-71.354;2023-07-13T00:16:54;9.52;;;7.57;;
81378;SDS011;70830;42.290;-71.354;2023-07-13T00:19:21;10.13;;;8.55;;
81378;SDS011;70830;42.290;-71.354;2023-07-13T00:21:47;10.07;;;8.10;;
81378;SDS011;70830;42.290;-71.354;2023-07-13T00:24:14;10.02;;;8.18;;
81378;SDS011;70830;42.290;-71.354;2023-07-13T00:26:42;9.05;;;7.30;;
81378;SDS011;70830;42.290;-71.354;2023-07-13T00:29:11;11.75;;;7.43;;
81378;SDS011;70830;42.290;-71.354;2023-07-13T00:31:38;11.88;;;7.60;;
81378;SDS011;70830;42.290;-71.354;2023-07-13T00:34:03;11.95;;;7.63;;
81378;SDS011;70830;42.290;-71.354;2023-07-13T00:36:30;8.98;;;7.50;;
81378;SDS011;70830;42.290;-71.354;2023-07-13T00:38:57;10.23;;;7.72;;
81378;SDS011;70830;42.290;-71.354;2023-07-13T00:41:23;10.35;;;7.35;;
81378;SDS011;70830;42.290;-71.354;2023-07-13T00:43:49;9.57;;;7.65;;
81378;SDS011;70830;42.290;-71.354;2023-07-13T00:46:36;8.77;;;7.88;;
81378;SDS011;70830;42.290;-71.354;2023-07-13T00:49:02;12.80;;;8.43;;
81378;SDS011;70830;42.290;-71.354;2023-07-13T00:51:36;9.02;;;7.78;;
81378;SDS011;70830;42.290;-71.354;2023-07-13T00:54:24;11.23;;;8.10;;
81378;SDS011;70830;42.290;-71.354;2023-07-13T00:56:55;7.57;;;6.82;;
81378;SDS011;70830;42.290;-71.354;2023-07-13T00:59:26;7.00;;;6.30;;
81378;SDS011;70830;42.290;-71.354;2023-07-13T01:01:52;7.68;;;6.55;;
81378;SDS011;70830;42.290;-71.354;2023-07-13T01:04:18;7.00;;;6.15;;
81378;SDS011;70830;42.290;-71.354;2023-07-13T01:06:44;7.00;;;6.30;;
81378;SDS011;70830;42.290;-71.354;2023-07-13T01:09:12;7.10;;;6.22;;
81378;SDS011;70830;42.290;-71.354;2023-07-13T01:11:39;6.30;;;5.72;;
81378;SDS011;70830;42.290;-71.354;2023-07-13T01:14:07;8.48;;;5.50;;
81378;SDS011;70830;42.290;-71.354;2023-07-13T01:16:34;11.43;;;5.85;;
81378;SDS011;70830;42.290;-71.354;2023-07-13T01:19:01;9.48;;;5.55;;
81378;SDS011;70830;42.290;-71.354;2023-07-13T01:21:32;6.97;;;5.68;;
81378;SDS011;70830;42.290;-71.354;2023-07-13T01:23:58;8.57;;;5.57;;
81378;SDS011;70830;42.290;-71.354;2023-07-13T01:26:24;10.65;;;5.28;;
81378;SDS011;70830;42.290;-71.354;2023-07-13T01:28:51;8.05;;;6.00;;
81378;SDS011;70830;42.290;-71.354;2023-07-13T01:31:17;6.20;;;5.60;;
81378;SDS011;70830;42.290;-71.354;2023-07-13T01:33:43;7.43;;;5.43;;
81378;SDS011;70830;42.290;-71.354;2023-07-13T01:36:09;7.40;;;5.80;;
81378;SDS011;70830;42.290;-71.354;2023-07-13T01:38:36;7.30;;;6.15;;
81378;SDS011;70830;42.290;-71.354;2023-07-13T01:41:02;5.93;;;4.88;;
81378;SDS011;70830;42.290;-71.354;2023-07-13T01:43:28;7.57;;;5.75;;
81378;SDS011;70830;42.290;-71.354;2023-07-13T01:45:54;9.35;;;5.93;;
81378;SDS011;70830;42.290;-71.354;2023-07-13T01:48:20;6.15;;;5.57;;
81378;SDS011;70830;42.290;-71.354;2023-07-13T01:50:46;10.25;;;6.03;;
81378;SDS011;70830;42.290;-71.354;2023-07-13T01:53:12;8.55;;;5.63;;
81378;SDS011;70830;42.290;-71.354;2023-07-13T01:55:41;8.75;;;5.70;;
81378;SDS011;70830;42.290;-71.354;2023-07-13T01:58:07;7.57;;;6.00;;
81378;SDS011;70830;42.290;-71.354;2023-07-13T02:00:33;8.25;;;5.25;;
81378;SDS011;70830;42.290;-71.354;2023-07-13T02:02:59;9.57;;;6.00;;
81378;SDS011;70830;42.290;-71.354;2023-07-13T02:05:25;9.20;;;5.70;;
81378;SDS011;70830;42.290;-71.354;2023-07-13T02:07:51;7.78;;;6.07;;
81378;SDS011;70830;42.290;-71.354;2023-07-13T02:10:18;9.25;;;6.18;;
81378;SDS011;70830;42.290;-71.354;2023-07-13T02:12:44;7.03;;;6.07;;
81378;SDS011;70830;42.290;-71.354;2023-07-13T02:15:10;6.53;;;5.93;;
81378;SDS011;70830;42.290;-71.354;2023-07-13T02:17:36;8.75;;;6.20;;
81378;SDS011;70830;42.290;-71.354;2023-07-13T02:20:02;9.77;;;5.68;;
81378;SDS011;70830;42.290;-71.354;2023-07-13T02:22:30;11.10;;;6.45;;
81378;SDS011;70830;42.290;-71.354;2023-07-13T02:24:56;9.15;;;6.07;;
81378;SDS011;70830;42.290;-71.354;2023-07-13T02:27:22;11.20;;;6.40;;
81378;SDS011;70830;42.290;-71.354;2023-07-13T02:29:47;7.55;;;6.35;;
81378;SDS011;70830;42.290;-71.354;2023-07-13T02:32:16;12.10;;;5.97;;
81378;SDS011;70830;42.290;-71.354;2023-07-13T02:34:42;10.00;;;6.18;;
81378;SDS011;70830;42.290;-71.354;2023-07-13T02:37:08;8.57;;;6.85;;
81378;SDS011;70830;42.290;-71.354;2023-07-13T02:39:34;8.68;;;6.70;;
81378;SDS011;70830;42.290;-71.354;2023-07-13T02:42:00;8.07;;;5.78;;
81378;SDS011;70830;42.290;-71.354;2023-07-13T02:44:26;8.57;;;7.13;;
81378;SDS011;70830;42.290;-71.354;2023-07-13T02:46:52;9.82;;;6.88;;
81378;SDS011;70830;42.290;-71.354;2023-07-13T02:49:18;8.98;;;7.47;;
81378;SDS011;70830;42.290;-71.354;2023-07-13T02:51:44;11.00;;;6.57;;
81378;SDS011;70830;42.290;-71.354;2023-07-13T02:54:10;7.88;;;6.63;;
81378;SDS011;70830;42.290;-71.354;2023-07-13T02:56:38;11.15;;;7.40;;
81378;SDS011;70830;42.290;-71.354;2023-07-13T02:59:05;10.80;;;7.15;;
81378;SDS011;70830;42.290;-71.354;2023-07-13T03:01:31;7.45;;;6.65;;
81378;SDS011;70830;42.290;-71.354;2023-07-13T03:04:00;9.68;;;7.10;;
81378;SDS011;70830;42.290;-71.354;2023-07-13T03:06:26;12.57;;;7.13;;
81378;SDS011;70830;42.290;-71.354;2023-07-13T03:08:55;11.45;;;7.13;;
81378;SDS011;70830;42.290;-71.354;2023-07-13T03:11:21;12.88;;;7.43;;
81378;SDS011;70830;42.290;-71.354;2023-07-13T03:13:47;9.07;;;6.55;;
81378;SDS011;70830;42.290;-71.354;2023-07-13T03:16:14;11.15;;;7.40;;
81378;SDS011;70830;42.290;-71.354;2023-07-13T03:18:41;11.73;;;7.35;;
81378;SDS011;70830;42.290;-71.354;2023-07-13T03:21:08;10.82;;;7.90;;
81378;SDS011;70830;42.290;-71.354;2023-07-13T03:23:34;8.60;;;7.13;;
81378;SDS011;70830;42.290;-71.354;2023-07-13T03:26:01;7.70;;;6.90;;
81378;SDS011;70830;42.290;-71.354;2023-07-13T03:28:34;7.75;;;7.05;;
81378;SDS011;70830;42.290;-71.354;2023-07-13T03:31:01;7.50;;;6.88;;
81378;SDS011;70830;42.290;-71.354;2023-07-13T03:33:35;8.80;;;7.47;;
81378;SDS011;70830;42.290;-71.354;2023-07-13T03:36:01;7.75;;;6.95;;
81378;SDS011;70830;42.290;-71.354;2023-07-13T03:38:28;8.02;;;7.03;;
81378;SDS011;70830;42.290;-71.354;2023-07-13T03:40:54;10.05;;;6.88;;
81378;SDS011;70830;42.290;-71.354;2023-07-13T03:43:21;10.88;;;7.50;;
81378;SDS011;70830;42.290;-71.354;2023-07-13T03:45:47;9.55;;;7.25;;
81378;SDS011;70830;42.290;-71.354;2023-07-13T03:48:13;9.13;;;7.30;;
81378;SDS011;70830;42.290;-71.354;2023-07-13T03:50:39;8.70;;;7.80;;
81378;SDS011;70830;42.290;-71.354;2023-07-13T03:53:05;8.88;;;8.00;;
81378;SDS011;70830;42.290;-71.354;2023-07-13T03:55:31;8.32;;;7.47;;
81378;SDS011;70830;42.290;-71.354;2023-07-13T03:58:00;9.15;;;8.23;;
81378;SDS011;70830;42.290;-71.354;2023-07-13T04:00:46;10.85;;;8.10;;
81378;SDS011;70830;42.290;-71.354;2023-07-13T04:03:12;12.65;;;8.07;;
81378;SDS011;70830;42.290;-71.354;2023-07-13T04:05:38;8.40;;;7.55;;
81378;SDS011;70830;42.290;-71.354;2023-07-13T04:08:05;13.50;;;7.45;;
81378;SDS011;70830;42.290;-71.354;2023-07-13T04:10:32;10.10;;;7.80;;
81378;SDS011;70830;42.290;-71.354;2023-07-13T04:12:58;9.45;;;8.55;;
81378;SDS011;70830;42.290;-71.354;2023-07-13T04:15:24;10.20;;;8.05;;
81378;SDS011;70830;42.290;-71.354;2023-07-13T04:17:49;12.60;;;8.25;;
81378;SDS011;70830;42.290;-71.354;2023-07-13T04:20:15;14.65;;;8.60;;
81378;SDS011;70830;42.290;-71.354;2023-07-13T04:22:41;12.48;;;8.05;;
81378;SDS011;70830;42.290;-71.354;2023-07-13T04:25:07;10.20;;;8.40;;
81378;SDS011;70830;42.290;-71.354;2023-07-13T04:27:34;11.68;;;9.10;;
81378;SDS011;70830;42.290;-71.354;2023-07-13T04:30:00;10.63;;;8.73;;
81378;SDS011;70830;42.290;-71.354;2023-07-13T04:32:26;10.57;;;7.93;;
81378;SDS011;70830;42.290;-71.354;2023-07-13T04:34:52;8.60;;;7.75;;
81378;SDS011;70830;42.290;-71.354;2023-07-13T04:37:20;12.32;;;8.35;;
81378;SDS011;70830;42.290;-71.354;2023-07-13T04:39:48;19.77;;;9.57;;
81378;SDS011;70830;42.290;-71.354;2023-07-13T04:42:13;12.82;;;9.30;;
81378;SDS011;70830;42.290;-71.354;2023-07-13T04:44:39;18.02;;;9.50;;
81378;SDS011;70830;42.290;-71.354;2023-07-13T04:47:05;18.48;;;9.07;;
81378;SDS011;70830;42.290;-71.354;2023-07-13T04:49:31;14.07;;;9.35;;
81378;SDS011;70830;42.290;-71.354;2023-07-13T04:51:57;10.98;;;9.10;;
81378;SDS011;70830;42.290;-71.354;2023-07-13T04:54:23;10.85;;;9.15;;
81378;SDS011;70830;42.290;-71.354;2023-07-13T04:56:49;11.00;;;8.25;;
81378;SDS011;70830;42.290;-71.354;2023-07-13T04:59:14;13.57;;;10.00;;
81378;SDS011;70830;42.290;-71.354;2023-07-13T05:01:41;11.07;;;9.25;;
81378;SDS011;70830;42.290;-71.354;2023-07-13T05:04:07;10.63;;;8.73;;
81378;SDS011;70830;42.290;-71.354;2023-07-13T05:06:33;16.50;;;9.60;;
81378;SDS011;70830;42.290;-71.354;2023-07-13T05:08:58;12.70;;;9.55;;
81378;SDS011;70830;42.290;-71.354;2023-07-13T05:11:24;9.98;;;8.68;;
81378;SDS011;70830;42.290;-71.354;2023-07-13T05:13:50;12.30;;;9.18;;
81378;SDS011;70830;42.290;-71.354;2023-07-13T05:16:16;12.05;;;8.90;;
81378;SDS011;70830;42.290;-71.354;2023-07-13T05:18:42;10.68;;;9.23;;
81378;SDS011;70830;42.290;-71.354;2023-07-13T05:21:08;18.65;;;9.85;;
81378;SDS011;70830;42.290;-71.354;2023-07-13T05:23:36;19.33;;;10.13;;
81378;SDS011;70830;42.290;-71.354;2023-07-13T05:26:03;14.52;;;10.63;;
81378;SDS011;70830;42.290;-71.354;2023-07-13T05:28:30;17.05;;;9.95;;
81378;SDS011;70830;42.290;-71.354;2023-07-13T05:30:56;11.10;;;9.60;;
81378;SDS011;70830;42.290;-71.354;2023-07-13T05:33:23;10.25;;;9.23;;
81378;SDS011;70830;42.290;-71.354;2023-07-13T05:35:49;10.07;;;8.85;;
81378;SDS011;70830;42.290;-71.354;2023-07-13T05:38:16;10.32;;;9.20;;
81378;SDS011;70830;42.290;-71.354;2023-07-13T05:40:45;11.27;;;8.82;;
81378;SDS011;70830;42.290;-71.354;2023-07-13T05:43:12;11.10;;;9.40;;
81378;SDS011;70830;42.290;-71.354;2023-07-13T05:45:38;10.73;;;8.98;;
81378;SDS011;70830;42.290;-71.354;2023-07-13T05:48:04;18.40;;;9.70;;
81378;SDS011;70830;42.290;-71.354;2023-07-13T05:50:30;12.52;;;9.07;;
81378;SDS011;70830;42.290;-71.354;2023-07-13T05:52:57;15.93;;;9.48;;
81378;SDS011;70830;42.290;-71.354;2023-07-13T05:55:23;10.60;;;9.57;;
81378;SDS011;70830;42.290;-71.354;2023-07-13T05:57:49;14.40;;;9.93;;
81378;SDS011;70830;42.290;-71.354;2023-07-13T06:00:15;12.52;;;10.32;;
81378;SDS011;70830;42.290;-71.354;2023-07-13T06:02:41;11.70;;;10.52;;
81378;SDS011;70830;42.290;-71.354;2023-07-13T06:05:07;10.95;;;9.65;;
81378;SDS011;70830;42.290;-71.354;2023-07-13T06:07:33;11.25;;;9.25;;
81378;SDS011;70830;42.290;-71.354;2023-07-13T06:09:59;22.63;;;10.70;;
81378;SDS011;70830;42.290;-71.354;2023-07-13T06:12:25;17.50;;;10.23;;
81378;SDS011;70830;42.290;-71.354;2023-07-13T06:14:52;10.75;;;9.65;;
81378;SDS011;70830;42.290;-71.354;2023-07-13T06:17:18;10.70;;;9.50;;
81378;SDS011;70830;42.290;-71.354;2023-07-13T06:19:44;12.75;;;10.13;;
81378;SDS011;70830;42.290;-71.354;2023-07-13T06:22:09;17.48;;;9.57;;
81378;SDS011;70830;42.290;-71.354;2023-07-13T06:24:35;13.13;;;10.07;;
81378;SDS011;70830;42.290;-71.354;2023-07-13T06:27:01;12.35;;;11.07;;
81378;SDS011;70830;42.290;-71.354;2023-07-13T06:29:27;12.40;;;9.65;;
81378;SDS011;70830;42.290;-71.354;2023-07-13T06:31:53;11.27;;;10.13;;
81378;SDS011;70830;42.290;-71.354;2023-07-13T06:34:19;18.40;;;10.75;;
81378;SDS011;70830;42.290;-71.354;2023-07-13T06:36:46;14.20;;;11.30;;
81378;SDS011;70830;42.290;-71.354;2023-07-13T06:39:12;12.73;;;10.38;;
81378;SDS011;70830;42.290;-71.354;2023-07-13T06:41:38;12.98;;;10.10;;
81378;SDS011;70830;42.290;-71.354;2023-07-13T06:44:04;17.50;;;10.30;;
81378;SDS011;70830;42.290;-71.354;2023-07-13T06:46:30;11.88;;;10.43;;
81378;SDS011;70830;42.290;-71.354;2023-07-13T06:48:56;11.68;;;10.57;;
81378;SDS011;70830;42.290;-71.354;2023-07-13T06:51:22;12.20;;;10.68;;
81378;SDS011;70830;42.290;-71.354;2023-07-13T06:53:48;11.98;;;10.88;;
81378;SDS011;70830;42.290;-71.354;2023-07-13T06:56:15;15.73;;;11.13;;
81378;SDS011;70830;42.290;-71.354;2023-07-13T06:58:41;11.23;;;10.13;;
81378;SDS011;70830;42.290;-71.354;2023-07-13T07:01:06;15.73;;;11.15;;
81378;SDS011;70830;42.290;-71.354;2023-07-13T07:03:33;14.82;;;11.23;;
81378;SDS011;70830;42.290;-71.354;2023-07-13T07:06:00;20.45;;;11.45;;
81378;SDS011;70830;42.290;-71.354;2023-07-13T07:08:37;16.85;;;10.77;;
81378;SDS011;70830;42.290;-71.354;2023-07-13T07:11:03;15.73;;;12.10;;
81378;SDS011;70830;42.290;-71.354;2023-07-13T07:13:28;12.90;;;10.68;;
81378;SDS011;70830;42.290;-71.354;2023-07-13T07:15:55;14.13;;;11.45;;
81378;SDS011;70830;42.290;-71.354;2023-07-13T07:18:21;26.20;;;11.25;;
81378;SDS011;70830;42.290;-71.354;2023-07-13T07:20:48;14.85;;;11.98;;
81378;SDS011;70830;42.290;-71.354;2023-07-13T07:23:14;14.20;;;11.52;;
81378;SDS011;70830;42.290;-71.354;2023-07-13T07:25:42;18.00;;;12.25;;
81378;SDS011;70830;42.290;-71.354;2023-07-13T07:28:09;16.50;;;13.23;;
81378;SDS011;70830;42.290;-71.354;2023-07-13T07:30:35;14.15;;;12.85;;
81378;SDS011;70830;42.290;-71.354;2023-07-13T07:33:01;14.15;;;12.73;;
81378;SDS011;70830;42.290;-71.354;2023-07-13T07:35:26;19.50;;;12.52;;
81378;SDS011;70830;42.290;-71.354;2023-07-13T07:37:52;16.75;;;11.80;;
81378;SDS011;70830;42.290;-71.354;2023-07-13T07:40:18;14.00;;;12.35;;
81378;SDS011;70830;42.290;-71.354;2023-07-13T07:42:44;19.35;;;12.43;;
81378;SDS011;70830;42.290;-71.354;2023-07-13T07:45:10;14.25;;;11.52;;
81378;SDS011;70830;42.290;-71.354;2023-07-13T07:47:36;13.25;;;11.80;;
81378;SDS011;70830;42.290;-71.354;2023-07-13T07:50:03;21.38;;;12.85;;
81378;SDS011;70830;42.290;-71.354;2023-07-13T07:52:29;14.95;;;11.60;;
81378;SDS011;70830;42.290;-71.354;2023-07-13T07:54:55;13.07;;;11.60;;
81378;SDS011;70830;42.290;-71.354;2023-07-13T07:57:21;16.55;;;13.20;;
81378;SDS011;70830;42.290;-71.354;2023-07-13T07:59:47;14.55;;;12.15;;
81378;SDS011;70830;42.290;-71.354;2023-07-13T08:02:13;18.15;;;11.82;;
81378;SDS011;70830;42.290;-71.354;2023-07-13T08:04:39;13.88;;;12.23;;
81378;SDS011;70830;42.290;-71.354;2023-07-13T08:07:05;15.13;;;12.40;;
81378;SDS011;70830;42.290;-71.354;2023-07-13T08:09:31;17.23;;;12.15;;
81378;SDS011;70830;42.290;-71.354;2023-07-13T08:11:57;14.07;;;12.73;;
81378;SDS011;70830;42.290;-71.354;2023-07-13T08:14:23;13.35;;;12.00;;
81378;SDS011;70830;42.290;-71.354;2023-07-13T08:16:49;15.80;;;12.57;;
81378;SDS011;70830;42.290;-71.354;2023-07-13T08:19:15;12.90;;;11.52;;
81378;SDS011;70830;42.290;-71.354;2023-07-13T08:21:41;13.20;;;11.85;;
81378;SDS011;70830;42.290;-71.354;2023-07-13T08:24:08;16.25;;;11.88;;
81378;SDS011;70830;42.290;-71.354;2023-07-13T08:26:34;13.90;;;12.05;;
81378;SDS011;70830;42.290;-71.354;2023-07-13T08:29:00;13.88;;;12.48;;
81378;SDS011;70830;42.290;-71.354;2023-07-13T08:31:27;13.27;;;11.85;;
81378;SDS011;70830;42.290;-71.354;2023-07-13T08:33:53;17.98;;;11.82;;
81378;SDS011;70830;42.290;-71.354;2023-07-13T08:36:19;20.35;;;11.90;;
81378;SDS011;70830;42.290;-71.354;2023-07-13T08:38:44;13.80;;;12.35;;
81378;SDS011;70830;42.290;-71.354;2023-07-13T08:41:12;13.25;;;11.95;;
81378;SDS011;70830;42.290;-71.354;2023-07-13T08:43:41;14.45;;;12.00;;
81378;SDS011;70830;42.290;-71.354;2023-07-13T08:46:12;13.40;;;11.85;;
81378;SDS011;70830;42.290;-71.354;2023-07-13T08:48:44;16.88;;;13.80;;
81378;SDS011;70830;42.290;-71.354;2023-07-13T08:54:03;24.58;;;13.90;;
81378;SDS011;70830;42.290;-71.354;2023-07-13T08:56:43;17.08;;;13.52;;
81378;SDS011;70830;42.290;-71.354;2023-07-13T08:59:13;14.60;;;13.05;;
81378;SDS011;70830;42.290;-71.354;2023-07-13T09:04:36;15.45;;;13.00;;
81378;SDS011;70830;42.290;-71.354;2023-07-13T09:18:07;18.73;;;13.65;;
81378;SDS011;70830;42.290;-71.354;2023-07-13T09:20:49;19.23;;;15.02;;
81378;SDS011;70830;42.290;-71.354;2023-07-13T09:23:20;21.70;;;16.85;;
81378;SDS011;70830;42.290;-71.354;2023-07-13T09:25:49;22.00;;;15.93;;
81378;SDS011;70830;42.290;-71.354;2023-07-13T09:28:22;24.20;;;16.85;;
81378;SDS011;70830;42.290;-71.354;2023-07-13T09:33:21;24.23;;;16.83;;
81378;SDS011;70830;42.290;-71.354;2023-07-13T09:35:48;19.40;;;17.00;;
81378;SDS011;70830;42.290;-71.354;2023-07-13T09:38:15;18.85;;;17.15;;
81378;SDS011;70830;42.290;-71.354;2023-07-13T09:40:48;24.10;;;17.45;;
81378;SDS011;70830;42.290;-71.354;2023-07-13T09:43:25;21.65;;;16.95;;
81378;SDS011;70830;42.290;-71.354;2023-07-13T09:45:52;17.52;;;15.70;;
81378;SDS011;70830;42.290;-71.354;2023-07-13T09:48:18;16.55;;;14.82;;
81378;SDS011;70830;42.290;-71.354;2023-07-13T09:50:45;20.92;;;15.13;;
81378;SDS011;70830;42.290;-71.354;2023-07-13T09:53:13;16.77;;;15.07;;
81378;SDS011;70830;42.290;-71.354;2023-07-13T09:55:41;18.73;;;15.95;;
81378;SDS011;70830;42.290;-71.354;2023-07-13T09:58:16;23.77;;;16.67;;
81378;SDS011;70830;42.290;-71.354;2023-07-13T10:01:01;19.83;;;15.73;;
81378;SDS011;70830;42.290;-71.354;2023-07-13T10:03:31;17.58;;;15.77;;
81378;SDS011;70830;42.290;-71.354;2023-07-13T10:06:16;23.58;;;15.73;;
81378;SDS011;70830;42.290;-71.354;2023-07-13T10:08:45;16.80;;;14.60;;
81378;SDS011;70830;42.290;-71.354;2023-07-13T10:11:26;17.77;;;14.52;;
81378;SDS011;70830;42.290;-71.354;2023-07-13T10:14:03;18.75;;;14.98;;
81378;SDS011;70830;42.290;-71.354;2023-07-13T10:16:37;16.75;;;14.02;;
81378;SDS011;70830;42.290;-71.354;2023-07-13T10:21:43;19.30;;;13.02;;
81378;SDS011;70830;42.290;-71.354;2023-07-13T10:24:32;17.73;;;13.13;;
81378;SDS011;70830;42.290;-71.354;2023-07-13T10:27:28;19.70;;;12.70;;
81378;SDS011;70830;42.290;-71.354;2023-07-13T10:32:35;17.13;;;13.23;;
81378;SDS011;70830;42.290;-71.354;2023-07-13T10:35:01;18.40;;;13.05;;
81378;SDS011;70830;42.290;-71.354;2023-07-13T10:37:34;18.08;;;14.48;;
81378;SDS011;70830;42.290;-71.354;2023-07-13T10:40:27;13.95;;;12.30;;
81378;SDS011;70830;42.290;-71.354;2023-07-13T10:42:58;18.13;;;12.30;;
81378;SDS011;70830;42.290;-71.354;2023-07-13T10:45:33;16.35;;;11.95;;
81378;SDS011;70830;42.290;-71.354;2023-07-13T10:48:01;18.52;;;12.27;;
81378;SDS011;70830;42.290;-71.354;2023-07-13T10:50:29;18.75;;;12.48;;
81378;SDS011;70830;42.290;-71.354;2023-07-13T10:53:02;12.70;;;10.82;;
81378;SDS011;70830;42.290;-71.354;2023-07-13T11:01:02;12.30;;;10.82;;
81378;SDS011;70830;42.290;-71.354;2023-07-13T11:03:46;11.50;;;10.13;;
81378;SDS011;70830;42.290;-71.354;2023-07-13T11:18:49;16.77;;;10.02;;
81378;SDS011;70830;42.290;-71.354;2023-07-13T11:21:21;14.02;;;9.63;;
81378;SDS011;70830;42.290;-71.354;2023-07-13T11:23:52;15.50;;;9.65;;
81378;SDS011;70830;42.290;-71.354;2023-07-13T11:26:42;13.15;;;10.02;;
81378;SDS011;70830;42.290;-71.354;2023-07-13T11:29:51;13.52;;;9.55;;
81378;SDS011;70830;42.290;-71.354;2023-07-13T11:32:20;12.07;;;9.93;;
81378;SDS011;70830;42.290;-71.354;2023-07-13T11:34:48;12.98;;;9.18;;
81378;SDS011;70830;42.290;-71.354;2023-07-13T11:37:16;12.63;;;9.70;;
81378;SDS011;70830;42.290;-71.354;2023-07-13T11:39:44;10.43;;;8.35;;
81378;SDS011;70830;42.290;-71.354;2023-07-13T11:42:13;12.52;;;8.55;;
81378;SDS011;70830;42.290;-71.354;2023-07-13T11:44:42;10.70;;;9.52;;
81378;SDS011;70830;42.290;-71.354;2023-07-13T11:47:17;13.85;;;8.88;;
81378;SDS011;70830;42.290;-71.354;2023-07-13T11:49:54;10.52;;;8.45;;
81378;SDS011;70830;42.290;-71.354;2023-07-13T11:52:32;19.80;;;8.80;;
81378;SDS011;70830;42.290;-71.354;2023-07-13T11:55:03;9.05;;;8.20;;
81378;SDS011;70830;42.290;-71.354;2023-07-13T11:57:41;13.57;;;8.68;;
81378;SDS011;70830;42.290;-71.354;2023-07-13T12:02:45;9.77;;;8.40;;
81378;SDS011;70830;42.290;-71.354;2023-07-13T12:05:13;11.10;;;8.07;;
81378;SDS011;70830;42.290;-71.354;2023-07-13T12:07:42;14.85;;;8.98;;
81378;SDS011;70830;42.290;-71.354;2023-07-13T12:10:20;16.85;;;8.13;;
81378;SDS011;70830;42.290;-71.354;2023-07-13T12:12:51;12.65;;;10.40;;
81378;SDS011;70830;42.290;-71.354;2023-07-13T12:18:03;12.88;;;8.70;;
81378;SDS011;70830;42.290;-71.354;2023-07-13T12:20:37;9.65;;;8.48;;
81378;SDS011;70830;42.290;-71.354;2023-07-13T12:23:26;10.55;;;9.07;;
81378;SDS011;70830;42.290;-71.354;2023-07-13T12:25:53;14.88;;;8.82;;
81378;SDS011;70830;42.290;-71.354;2023-07-13T12:28:21;13.40;;;8.68;;
81378;SDS011;70830;42.290;-71.354;2023-07-13T12:30:48;9.95;;;8.68;;
81378;SDS011;70830;42.290;-71.354;2023-07-13T12:33:14;13.30;;;8.38;;
81378;SDS011;70830;42.290;-71.354;2023-07-13T12:35:46;10.73;;;8.68;;
81378;SDS011;70830;42.290;-71.354;2023-07-13T12:38:15;13.43;;;8.98;;
81378;SDS011;70830;42.290;-71.354;2023-07-13T12:40:41;14.38;;;8.90;;
81378;SDS011;70830;42.290;-71.354;2023-07-13T12:43:14;15.75;;;9.20;;
81378;SDS011;70830;42.290;-71.354;2023-07-13T12:45:56;15.45;;;8.50;;
81378;SDS011;70830;42.290;-71.354;2023-07-13T12:48:37;12.40;;;9.45;;
81378;SDS011;70830;42.290;-71.354;2023-07-13T12:51:08;12.98;;;9.50;;
81378;SDS011;70830;42.290;-71.354;2023-07-13T12:53:39;11.23;;;8.38;;
81378;SDS011;70830;42.290;-71.354;2023-07-13T12:56:08;15.40;;;9.23;;
81378;SDS011;70830;42.290;-71.354;2023-07-13T12:58:45;15.40;;;9.60;;
81378;SDS011;70830;42.290;-71.354;2023-07-13T13:01:19;17.05;;;8.88;;
81378;SDS011;70830;42.290;-71.354;2023-07-13T13:03:52;13.32;;;8.88;;
81378;SDS011;70830;42.290;-71.354;2023-07-13T13:06:26;9.50;;;8.48;;
81378;SDS011;70830;42.290;-71.354;2023-07-13T13:08:57;13.23;;;8.73;;
81378;SDS011;70830;42.290;-71.354;2023-07-13T13:11:25;10.27;;;9.10;;
81378;SDS011;70830;42.290;-71.354;2023-07-13T13:13:53;11.57;;;9.13;;
81378;SDS011;70830;42.290;-71.354;2023-07-13T13:16:24;11.95;;;8.38;;
81378;SDS011;70830;42.290;-71.354;2023-07-13T13:18:57;10.15;;;9.05;;
81378;SDS011;70830;42.290;-71.354;2023-07-13T13:21:27;12.07;;;8.48;;
81378;SDS011;70830;42.290;-71.354;2023-07-13T13:23:53;15.55;;;9.38;;
81378;SDS011;70830;42.290;-71.354;2023-07-13T13:26:19;12.68;;;9.20;;
81378;SDS011;70830;42.290;-71.354;2023-07-13T13:28:47;12.00;;;10.20;;
81378;SDS011;70830;42.290;-71.354;2023-07-13T13:31:14;11.30;;;9.57;;
81378;SDS011;70830;42.290;-71.354;2023-07-13T13:33:40;11.45;;;9.27;;
81378;SDS011;70830;42.290;-71.354;2023-07-13T13:36:17;10.13;;;9.00;;
81378;SDS011;70830;42.290;-71.354;2023-07-13T13:38:45;14.73;;;9.52;;
81378;SDS011;70830;42.290;-71.354;2023-07-13T13:41:12;10.70;;;9.15;;
81378;SDS011;70830;42.290;-71.354;2023-07-13T13:43:40;9.90;;;8.45;;
81378;SDS011;70830;42.290;-71.354;2023-07-13T13:46:25;16.85;;;10.00;;
81378;SDS011;70830;42.290;-71.354;2023-07-13T13:48:54;9.63;;;8.73;;
81378;SDS011;70830;42.290;-71.354;2023-07-13T13:51:21;11.10;;;8.82;;
81378;SDS011;70830;42.290;-71.354;2023-07-13T13:53:49;12.07;;;7.55;;
81378;SDS011;70830;42.290;-71.354;2023-07-13T13:56:15;10.43;;;7.82;;
81378;SDS011;70830;42.290;-71.354;2023-07-13T13:58:43;10.35;;;8.65;;
81378;SDS011;70830;42.290;-71.354;2023-07-13T14:01:13;9.40;;;8.10;;
81378;SDS011;70830;42.290;-71.354;2023-07-13T14:03:45;11.48;;;8.40;;
81378;SDS011;70830;42.290;-71.354;2023-07-13T14:06:14;13.07;;;7.88;;
81378;SDS011;70830;42.290;-71.354;2023-07-13T14:08:41;8.75;;;7.95;;
81378;SDS011;70830;42.290;-71.354;2023-07-13T14:11:12;16.80;;;8.00;;
81378;SDS011;70830;42.290;-71.354;2023-07-13T14:13:43;8.85;;;7.00;;
81378;SDS011;70830;42.290;-71.354;2023-07-13T14:16:20;10.48;;;7.28;;
81378;SDS011;70830;42.290;-71.354;2023-07-13T14:18:48;13.38;;;7.30;;
81378;SDS011;70830;42.290;-71.354;2023-07-13T14:21:15;12.40;;;7.57;;
81378;SDS011;70830;42.290;-71.354;2023-07-13T14:23:46;7.32;;;6.20;;
81378;SDS011;70830;42.290;-71.354;2023-07-13T14:26:18;7.70;;;6.88;;
81378;SDS011;70830;42.290;-71.354;2023-07-13T14:31:13;10.20;;;6.93;;
81378;SDS011;70830;42.290;-71.354;2023-07-13T14:33:41;9.52;;;6.43;;
81378;SDS011;70830;42.290;-71.354;2023-07-13T14:39:00;9.70;;;6.75;;
81378;SDS011;70830;42.290;-71.354;2023-07-13T14:41:36;6.45;;;5.72;;
81378;SDS011;70830;42.290;-71.354;2023-07-13T14:44:07;9.40;;;6.38;;
81378;SDS011;70830;42.290;-71.354;2023-07-13T14:46:41;9.23;;;6.10;;
81378;SDS011;70830;42.290;-71.354;2023-07-13T14:52:14;8.93;;;5.93;;
81378;SDS011;70830;42.290;-71.354;2023-07-13T14:54:42;8.23;;;6.35;;
81378;SDS011;70830;42.290;-71.354;2023-07-13T14:57:16;6.82;;;5.88;;
81378;SDS011;70830;42.290;-71.354;2023-07-13T14:59:46;13.15;;;6.43;;
81378;SDS011;70830;42.290;-71.354;2023-07-13T15:02:21;9.00;;;6.43;;
81378;SDS011;70830;42.290;-71.354;2023-07-13T15:04:54;7.90;;;5.78;;
81378;SDS011;70830;42.290;-71.354;2023-07-13T15:07:20;8.25;;;5.80;;
81378;SDS011;70830;42.290;-71.354;2023-07-13T15:09:46;9.52;;;5.50;;
81378;SDS011;70830;42.290;-71.354;2023-07-13T15:12:13;6.07;;;5.47;;
81378;SDS011;70830;42.290;-71.354;2023-07-13T15:14:39;7.15;;;5.55;;